Time;durP1;ratioP1;P1;durP2;ratioP2;P2;SDS_P1;SDS_P2;PMS_P1;PMS_P2;Temp;Humidity;BMP_temperature;BMP_pressure;BME280_temperature;BME280_humidity;BME280_pressure;Samples;Min_cycle;Max_cycle;Signal;HPM_P1;HPM_P2
2022/09/18 00:02:03;;;;;;;8.52;2.40;;;;;;;;;;5039535;28;20435;-82
2022/09/18 00:04:30;;;;;;;9.02;2.60;;;;;;;;;;5038188;28;20565;-83
2022/09/18 00:06:57;;;;;;;10.50;2.70;;;;;;;;;;5041276;28;20875;-83
2022/09/18 00:09:25;;;;;;;11.32;2.70;;;;;;;;;;5040927;28;20417;-83
2022/09/18 00:11:51;;;;;;;7.00;2.10;;;;;;;;;;5040537;28;20417;-81
2022/09/18 00:14:18;;;;;;;9.85;2.40;;;;;;;;;;5039778;28;20425;-81
2022/09/18 00:16:45;;;;;;;12.15;3.10;;;;;;;;;;5039179;28;20430;-81
2022/09/18 00:19:12;;;;;;;9.18;2.95;;;;;;;;;;5039473;28;20413;-82
2022/09/18 00:21:40;;;;;;;11.07;3.13;;;;;;;;;;5040782;28;20429;-81
2022/09/18 00:24:07;;;;;;;11.02;2.20;;;;;;;;;;5041361;28;20411;-81
2022/09/18 00:26:35;;;;;;;11.48;2.30;;;;;;;;;;5037864;28;20421;-81
2022/09/18 00:29:01;;;;;;;8.52;2.22;;;;;;;;;;5040417;28;20427;-82
2022/09/18 00:31:29;;;;;;;14.10;2.78;;;;;;;;;;5038986;28;20441;-81
2022/09/18 00:33:56;;;;;;;9.57;2.60;;;;;;;;;;5039436;28;20473;-81
2022/09/18 00:36:23;;;;;;;12.35;2.20;;;;;;;;;;5039116;28;20430;-81
2022/09/18 00:38:50;;;;;;;8.15;2.45;;;;;;;;;;5040901;28;20942;-82
2022/09/18 00:41:17;;;;;;;7.87;2.53;;;;;;;;;;5038651;28;20430;-81
2022/09/18 00:43:45;;;;;;;7.95;2.33;;;;;;;;;;5041575;28;20415;-81
2022/09/18 00:46:19;;;;;;;9.93;2.63;;;;;;;;;;5036656;28;20441;-81
2022/09/18 00:48:47;;;;;;;13.43;2.00;;;;;;;;;;5040071;28;20429;-81
2022/09/18 00:51:14;;;;;;;11.45;2.67;;;;;;;;;;5037489;28;20919;-80
2022/09/18 00:53:44;;;;;;;9.40;2.20;;;;;;;;;;5040402;28;21024;-81
2022/09/18 00:56:12;;;;;;;10.77;2.15;;;;;;;;;;5035877;28;20457;-81
2022/09/18 00:58:39;;;;;;;11.15;2.40;;;;;;;;;;5037978;28;20439;-81
2022/09/18 01:01:07;;;;;;;5.40;2.00;;;;;;;;;;5042308;28;20436;-81
2022/09/18 01:03:34;;;;;;;12.13;2.83;;;;;;;;;;5041290;28;20425;-83
2022/09/18 01:06:06;;;;;;;9.68;2.38;;;;;;;;;;5042480;28;20425;-84
2022/09/18 01:08:37;;;;;;;6.33;2.20;;;;;;;;;;5041440;28;20982;-81
2022/09/18 01:11:09;;;;;;;5.50;2.10;;;;;;;;;;5044953;28;20422;-81
2022/09/18 01:13:41;;;;;;;10.15;2.50;;;;;;;;;;5041544;28;20424;-83
2022/09/18 01:16:14;;;;;;;11.85;2.25;;;;;;;;;;5043512;28;20969;-81
2022/09/18 01:18:45;;;;;;;9.52;2.22;;;;;;;;;;5043303;28;20434;-82
2022/09/18 01:21:13;;;;;;;6.30;2.17;;;;;;;;;;5043703;28;20445;-81
2022/09/18 01:23:54;;;;;;;10.77;2.42;;;;;;;;;;5042311;28;20425;-81
2022/09/18 01:26:33;;;;;;;10.15;2.15;;;;;;;;;;5043698;28;20525;-81
2022/09/18 01:29:05;;;;;;;8.67;2.63;;;;;;;;;;5044255;28;20435;-81
2022/09/18 01:31:34;;;;;;;6.90;2.50;;;;;;;;;;5043618;28;20448;-81
2022/09/18 01:34:02;;;;;;;9.15;3.08;;;;;;;;;;5041904;28;20457;-81
2022/09/18 01:36:30;;;;;;;11.00;2.60;;;;;;;;;;5040744;28;20435;-80
2022/09/18 01:39:00;;;;;;;6.35;2.10;;;;;;;;;;5041910;28;20429;-82
2022/09/18 01:41:28;;;;;;;5.63;1.80;;;;;;;;;;5042168;28;20591;-81
2022/09/18 01:43:59;;;;;;;10.85;2.45;;;;;;;;;;5039764;28;20425;-81
2022/09/18 01:46:27;;;;;;;9.73;2.22;;;;;;;;;;5040494;28;20434;-81
2022/09/18 01:48:57;;;;;;;9.95;2.22;;;;;;;;;;5039469;28;20429;-83
2022/09/18 01:51:28;;;;;;;9.77;2.50;;;;;;;;;;5041870;28;20444;-82
2022/09/18 01:53:56;;;;;;;10.82;2.40;;;;;;;;;;5040555;28;20538;-84
2022/09/18 01:56:25;;;;;;;8.40;2.42;;;;;;;;;;5041676;28;21045;-83
2022/09/18 01:58:53;;;;;;;11.13;1.90;;;;;;;;;;5041050;28;20433;-82
2022/09/18 02:01:21;;;;;;;9.48;2.17;;;;;;;;;;5041736;28;20881;-81
2022/09/18 02:03:51;;;;;;;7.03;2.50;;;;;;;;;;5043180;28;20429;-83
2022/09/18 02:06:20;;;;;;;9.65;2.00;;;;;;;;;;5040886;28;20447;-82
2022/09/18 02:08:48;;;;;;;6.55;2.10;;;;;;;;;;5042451;28;20422;-83
2022/09/18 02:11:15;;;;;;;7.25;1.92;;;;;;;;;;5039683;28;20441;-83
2022/09/18 02:13:44;;;;;;;6.63;1.58;;;;;;;;;;5043272;28;20433;-83
2022/09/18 02:16:12;;;;;;;7.10;1.77;;;;;;;;;;5040881;28;20428;-83
2022/09/18 02:18:45;;;;;;;7.70;1.80;;;;;;;;;;5041489;28;20436;-83
2022/09/18 02:21:14;;;;;;;13.52;2.45;;;;;;;;;;5040738;28;20434;-83
2022/09/18 02:23:42;;;;;;;7.47;2.10;;;;;;;;;;5041949;28;20437;-83
2022/09/18 02:26:09;;;;;;;10.35;1.92;;;;;;;;;;5040434;28;20431;-82
2022/09/18 02:28:37;;;;;;;10.18;2.40;;;;;;;;;;5039207;28;20506;-83
2022/09/18 02:31:03;;;;;;;8.63;2.03;;;;;;;;;;5041558;28;20439;-82
2022/09/18 02:33:31;;;;;;;9.90;2.10;;;;;;;;;;5043417;28;20417;-83
2022/09/18 02:36:12;;;;;;;6.53;2.05;;;;;;;;;;5042253;28;20456;-82
2022/09/18 02:38:45;;;;;;;5.50;1.90;;;;;;;;;;5039941;28;20414;-82
2022/09/18 02:41:15;;;;;;;7.63;2.60;;;;;;;;;;5042392;28;20423;-82
2022/09/18 02:43:45;;;;;;;6.88;2.10;;;;;;;;;;5040088;28;20427;-82
2022/09/18 02:46:15;;;;;;;7.93;1.85;;;;;;;;;;5044727;28;20436;-83
2022/09/18 02:48:47;;;;;;;9.57;2.27;;;;;;;;;;5042338;28;20444;-83
2022/09/18 02:51:18;;;;;;;8.00;2.40;;;;;;;;;;5042068;28;21004;-83
2022/09/18 02:53:49;;;;;;;10.00;2.70;;;;;;;;;;5042516;28;20421;-83
2022/09/18 02:56:20;;;;;;;7.68;2.50;;;;;;;;;;5042628;28;20437;-83
2022/09/18 02:58:49;;;;;;;10.07;2.85;;;;;;;;;;5041644;28;20453;-83
2022/09/18 03:01:16;;;;;;;9.27;2.25;;;;;;;;;;5041320;28;20846;-83
2022/09/18 03:03:43;;;;;;;10.25;2.20;;;;;;;;;;5041645;28;20434;-83
2022/09/18 03:06:10;;;;;;;10.18;2.75;;;;;;;;;;5042311;28;20436;-83
2022/09/18 03:08:36;;;;;;;10.88;2.95;;;;;;;;;;5041004;28;20954;-83
2022/09/18 03:11:04;;;;;;;8.30;2.60;;;;;;;;;;5041347;28;20437;-83
2022/09/18 03:13:31;;;;;;;9.80;2.72;;;;;;;;;;5040691;28;20433;-83
2022/09/18 03:15:57;;;;;;;8.95;2.50;;;;;;;;;;5040666;28;20432;-83
2022/09/18 03:18:24;;;;;;;10.30;2.90;;;;;;;;;;5039789;28;20431;-82
2022/09/18 03:20:50;;;;;;;12.60;3.00;;;;;;;;;;5041122;28;20433;-83
2022/09/18 03:23:17;;;;;;;10.25;2.50;;;;;;;;;;5039476;28;20425;-83
2022/09/18 03:25:43;;;;;;;9.90;2.70;;;;;;;;;;5041411;28;20433;-83
2022/09/18 03:28:11;;;;;;;14.18;2.88;;;;;;;;;;5042362;28;21310;-82
2022/09/18 03:30:38;;;;;;;9.30;2.50;;;;;;;;;;5040980;28;20442;-83
2022/09/18 03:33:05;;;;;;;9.77;2.50;;;;;;;;;;5039677;28;20495;-83
2022/09/18 03:35:32;;;;;;;6.90;2.30;;;;;;;;;;5040649;28;20791;-83
2022/09/18 03:37:58;;;;;;;16.98;2.70;;;;;;;;;;5042554;28;20409;-83
2022/09/18 03:40:25;;;;;;;11.27;3.30;;;;;;;;;;5039826;28;20438;-83
2022/09/18 03:42:52;;;;;;;8.63;2.65;;;;;;;;;;5040445;28;20422;-83
2022/09/18 03:45:20;;;;;;;9.18;2.20;;;;;;;;;;5042504;28;20433;-83
2022/09/18 03:47:47;;;;;;;11.68;2.45;;;;;;;;;;5041863;28;20764;-83
2022/09/18 03:50:14;;;;;;;8.83;2.23;;;;;;;;;;5037567;28;20569;-83
2022/09/18 03:52:40;;;;;;;10.75;2.13;;;;;;;;;;5038656;28;20411;-84
2022/09/18 03:55:07;;;;;;;9.52;2.30;;;;;;;;;;5042661;28;20425;-83
2022/09/18 03:57:34;;;;;;;5.68;2.28;;;;;;;;;;5038235;28;20416;-84
2022/09/18 04:00:00;;;;;;;7.20;2.00;;;;;;;;;;5040700;28;21001;-83
2022/09/18 04:02:28;;;;;;;8.73;2.50;;;;;;;;;;5042066;28;20588;-83
2022/09/18 04:04:55;;;;;;;9.77;2.10;;;;;;;;;;5041726;28;20421;-83
2022/09/18 04:07:22;;;;;;;8.52;2.35;;;;;;;;;;5039318;28;20915;-83
2022/09/18 04:09:48;;;;;;;6.70;1.80;;;;;;;;;;5039711;28;20431;-82
2022/09/18 04:12:15;;;;;;;6.32;1.98;;;;;;;;;;5039459;28;20435;-83
2022/09/18 04:14:41;;;;;;;6.10;2.00;;;;;;;;;;5041508;28;20451;-83
2022/09/18 04:17:07;;;;;;;9.82;2.78;;;;;;;;;;5041383;28;20436;-83
2022/09/18 04:19:35;;;;;;;14.23;2.70;;;;;;;;;;5040494;28;20499;-82
2022/09/18 04:22:03;;;;;;;7.03;2.03;;;;;;;;;;5055233;28;20437;-84
2022/09/18 04:24:29;;;;;;;10.10;2.37;;;;;;;;;;5038678;28;20421;-85
2022/09/18 04:26:56;;;;;;;6.82;2.38;;;;;;;;;;5039100;28;20441;-83
2022/09/18 04:29:22;;;;;;;14.13;2.63;;;;;;;;;;5038022;28;20419;-83
2022/09/18 04:31:49;;;;;;;9.43;2.60;;;;;;;;;;5041755;28;20495;-83
2022/09/18 04:34:18;;;;;;;13.02;2.80;;;;;;;;;;5040350;28;20417;-82
2022/09/18 04:36:46;;;;;;;10.18;2.20;;;;;;;;;;5041963;28;20433;-82
2022/09/18 04:39:12;;;;;;;8.82;1.85;;;;;;;;;;5043849;28;20435;-82
2022/09/18 04:41:38;;;;;;;12.45;2.30;;;;;;;;;;5044204;28;20433;-83
2022/09/18 04:44:05;;;;;;;7.40;2.20;;;;;;;;;;5044711;28;20503;-83
2022/09/18 04:46:32;;;;;;;10.73;2.87;;;;;;;;;;5043664;28;20435;-82
2022/09/18 04:48:58;;;;;;;7.72;2.35;;;;;;;;;;5042196;28;20438;-83
2022/09/18 04:51:25;;;;;;;6.95;2.30;;;;;;;;;;5043505;28;20431;-83
2022/09/18 04:53:53;;;;;;;8.75;2.40;;;;;;;;;;5039924;28;20430;-83
2022/09/18 04:56:19;;;;;;;10.70;2.45;;;;;;;;;;5043404;28;20431;-83
2022/09/18 04:58:45;;;;;;;6.95;1.88;;;;;;;;;;5045188;28;20429;-82
2022/09/18 05:01:12;;;;;;;6.90;2.27;;;;;;;;;;5043011;28;20453;-83
2022/09/18 05:03:38;;;;;;;10.00;1.92;;;;;;;;;;5043372;28;20428;-83
2022/09/18 05:06:05;;;;;;;6.35;2.00;;;;;;;;;;5043238;28;20933;-83
2022/09/18 05:08:33;;;;;;;11.85;2.10;;;;;;;;;;5043822;28;20437;-83
2022/09/18 05:11:03;;;;;;;6.85;2.08;;;;;;;;;;5041992;28;20429;-83
2022/09/18 05:13:29;;;;;;;7.10;1.92;;;;;;;;;;5041653;28;20421;-83
2022/09/18 05:15:56;;;;;;;13.38;2.78;;;;;;;;;;5044238;28;20480;-82
2022/09/18 05:18:23;;;;;;;11.10;2.20;;;;;;;;;;5045535;28;20421;-81
2022/09/18 05:20:50;;;;;;;10.43;2.40;;;;;;;;;;5043328;28;21190;-82
2022/09/18 05:23:16;;;;;;;8.63;2.03;;;;;;;;;;5042095;28;20409;-82
2022/09/18 05:25:43;;;;;;;6.97;1.92;;;;;;;;;;5043868;28;20437;-82
2022/09/18 05:28:12;;;;;;;9.47;2.20;;;;;;;;;;5043218;28;20422;-83
2022/09/18 05:30:38;;;;;;;7.50;2.22;;;;;;;;;;5043299;28;20437;-83
2022/09/18 05:33:06;;;;;;;8.68;2.00;;;;;;;;;;5042273;28;20413;-83
2022/09/18 05:35:33;;;;;;;9.75;1.80;;;;;;;;;;5043953;28;20442;-83
2022/09/18 05:38:00;;;;;;;7.40;2.10;;;;;;;;;;5041626;28;20414;-83
2022/09/18 05:40:29;;;;;;;8.38;2.15;;;;;;;;;;5044592;28;20435;-83
2022/09/18 05:42:56;;;;;;;9.13;2.60;;;;;;;;;;5041089;28;20437;-84
2022/09/18 05:45:24;;;;;;;7.88;2.10;;;;;;;;;;5042791;28;20446;-83
2022/09/18 05:47:55;;;;;;;10.40;2.70;;;;;;;;;;5038034;28;20471;-83
2022/09/18 05:50:22;;;;;;;14.45;2.20;;;;;;;;;;5042514;28;20498;-82
2022/09/18 05:52:56;;;;;;;11.67;2.40;;;;;;;;;;5040781;28;20422;-82
2022/09/18 05:55:22;;;;;;;9.02;2.17;;;;;;;;;;5042837;28;20434;-82
2022/09/18 05:57:51;;;;;;;9.02;2.30;;;;;;;;;;5040547;28;20423;-83
2022/09/18 06:00:18;;;;;;;7.20;1.90;;;;;;;;;;5042099;28;20437;-82
2022/09/18 06:02:51;;;;;;;11.23;2.55;;;;;;;;;;5043293;28;20422;-82
2022/09/18 06:05:17;;;;;;;9.63;2.50;;;;;;;;;;5039709;28;20427;-82
2022/09/18 06:07:44;;;;;;;8.80;2.00;;;;;;;;;;5040813;28;20426;-82
2022/09/18 06:10:11;;;;;;;9.95;2.55;;;;;;;;;;5043239;28;20429;-83
2022/09/18 06:12:38;;;;;;;11.15;2.58;;;;;;;;;;5039673;28;20403;-82
2022/09/18 06:15:05;;;;;;;10.70;2.45;;;;;;;;;;5042959;28;20435;-83
2022/09/18 06:17:32;;;;;;;7.35;2.28;;;;;;;;;;5042504;28;20494;-83
2022/09/18 06:20:00;;;;;;;12.20;3.28;;;;;;;;;;5041960;28;21592;-83
2022/09/18 06:22:26;;;;;;;8.00;2.80;;;;;;;;;;5038344;28;20933;-83
2022/09/18 06:24:54;;;;;;;10.60;2.65;;;;;;;;;;5041059;28;20430;-83
2022/09/18 06:27:21;;;;;;;8.20;2.30;;;;;;;;;;5042390;28;20982;-83
2022/09/18 06:29:47;;;;;;;9.07;2.50;;;;;;;;;;5041618;28;20488;-82
2022/09/18 06:32:14;;;;;;;9.80;2.50;;;;;;;;;;5039167;28;20443;-86
2022/09/18 06:34:41;;;;;;;7.88;2.60;;;;;;;;;;5045926;28;20439;-82
2022/09/18 06:37:10;;;;;;;12.45;2.70;;;;;;;;;;5042394;28;20442;-82
2022/09/18 06:39:37;;;;;;;11.30;2.20;;;;;;;;;;5040123;28;20427;-85
2022/09/18 06:42:04;;;;;;;7.68;2.40;;;;;;;;;;5041336;28;20443;-83
2022/09/18 06:44:30;;;;;;;9.63;2.20;;;;;;;;;;5040689;28;20417;-82
2022/09/18 06:46:56;;;;;;;7.55;1.90;;;;;;;;;;5042568;28;20440;-83
2022/09/18 06:49:23;;;;;;;9.93;1.85;;;;;;;;;;5041633;28;20513;-83
2022/09/18 06:51:49;;;;;;;12.85;2.83;;;;;;;;;;5039716;28;20435;-83
2022/09/18 06:54:17;;;;;;;7.93;2.35;;;;;;;;;;5041159;28;20419;-83
2022/09/18 06:56:45;;;;;;;8.68;2.30;;;;;;;;;;5038444;28;20433;-83
2022/09/18 06:59:12;;;;;;;5.10;1.90;;;;;;;;;;5041466;28;20447;-82
2022/09/18 07:01:38;;;;;;;8.30;2.03;;;;;;;;;;5040292;28;20429;-82
2022/09/18 07:04:05;;;;;;;10.00;2.55;;;;;;;;;;5041651;28;20414;-83
2022/09/18 07:06:31;;;;;;;9.68;1.90;;;;;;;;;;5040476;28;20442;-82
2022/09/18 07:08:58;;;;;;;4.57;2.10;;;;;;;;;;5041677;28;20524;-82
2022/09/18 07:11:25;;;;;;;8.88;2.00;;;;;;;;;;5042695;28;20460;-82
2022/09/18 07:13:53;;;;;;;8.77;2.30;;;;;;;;;;5039241;28;20939;-82
2022/09/18 07:16:19;;;;;;;8.27;1.80;;;;;;;;;;5043143;28;20931;-82
2022/09/18 07:18:47;;;;;;;5.22;1.95;;;;;;;;;;5039307;28;20429;-83
2022/09/18 07:21:13;;;;;;;6.18;1.90;;;;;;;;;;5040178;28;20773;-84
2022/09/18 07:23:40;;;;;;;7.20;2.40;;;;;;;;;;5040666;28;20439;-83
2022/09/18 07:26:07;;;;;;;6.13;1.98;;;;;;;;;;5040987;28;20441;-82
2022/09/18 07:28:35;;;;;;;4.70;1.90;;;;;;;;;;5036050;28;20428;-83
2022/09/18 07:31:02;;;;;;;7.03;1.80;;;;;;;;;;5041383;28;20434;-83
2022/09/18 07:33:29;;;;;;;6.43;2.00;;;;;;;;;;5038761;28;20437;-82
2022/09/18 07:35:59;;;;;;;6.43;2.28;;;;;;;;;;5039530;28;20452;-81
2022/09/18 07:38:26;;;;;;;8.88;2.58;;;;;;;;;;5041178;28;20478;-82
2022/09/18 07:40:52;;;;;;;7.77;2.10;;;;;;;;;;5041425;28;20451;-83
2022/09/18 07:43:19;;;;;;;7.40;1.98;;;;;;;;;;5041112;28;20419;-82
2022/09/18 07:45:46;;;;;;;7.50;2.00;;;;;;;;;;5041960;28;20431;-82
2022/09/18 07:48:13;;;;;;;7.27;1.97;;;;;;;;;;5040719;28;20462;-83
2022/09/18 07:50:40;;;;;;;10.15;1.80;;;;;;;;;;5036966;28;20448;-82
2022/09/18 07:53:07;;;;;;;4.10;1.50;;;;;;;;;;5039209;28;20425;-82
2022/09/18 07:55:35;;;;;;;5.70;1.60;;;;;;;;;;5038002;28;20423;-83
2022/09/18 07:58:03;;;;;;;6.72;1.92;;;;;;;;;;5039853;28;20431;-82
2022/09/18 08:00:32;;;;;;;4.57;1.67;;;;;;;;;;5053310;28;20429;-83
2022/09/18 08:03:03;;;;;;;6.70;1.63;;;;;;;;;;5039653;28;20434;-83
2022/09/18 08:05:30;;;;;;;4.57;1.55;;;;;;;;;;5038489;28;20448;-82
2022/09/18 08:07:57;;;;;;;5.90;1.75;;;;;;;;;;5038998;28;20421;-81
2022/09/18 08:10:24;;;;;;;9.70;2.50;;;;;;;;;;5038613;28;20487;-82
2022/09/18 08:12:53;;;;;;;12.90;2.50;;;;;;;;;;5037646;28;20436;-81
2022/09/18 08:15:20;;;;;;;7.85;1.88;;;;;;;;;;5037105;28;20444;-81
2022/09/18 08:17:46;;;;;;;8.38;1.98;;;;;;;;;;5038277;28;20467;-82
2022/09/18 08:20:15;;;;;;;6.03;1.90;;;;;;;;;;5038461;28;20808;-82
2022/09/18 08:22:41;;;;;;;5.93;2.20;;;;;;;;;;5038282;28;20413;-82
2022/09/18 08:25:09;;;;;;;5.15;2.00;;;;;;;;;;5039995;28;20447;-82
2022/09/18 08:27:36;;;;;;;6.15;1.80;;;;;;;;;;5039536;28;20419;-83
2022/09/18 08:30:04;;;;;;;4.95;2.20;;;;;;;;;;5040035;28;20922;-82
2022/09/18 08:32:31;;;;;;;6.82;2.00;;;;;;;;;;5039010;28;20464;-83
2022/09/18 08:34:58;;;;;;;5.32;1.80;;;;;;;;;;5042923;28;20942;-82
2022/09/18 08:37:27;;;;;;;4.60;1.83;;;;;;;;;;5037348;28;20444;-83
2022/09/18 08:39:54;;;;;;;4.80;1.60;;;;;;;;;;5042895;28;20435;-81
2022/09/18 08:42:25;;;;;;;6.20;1.60;;;;;;;;;;5038545;28;20784;-81
2022/09/18 08:44:53;;;;;;;5.90;1.70;;;;;;;;;;5040573;28;20457;-82
2022/09/18 08:47:22;;;;;;;5.15;1.70;;;;;;;;;;5039812;28;20450;-84
2022/09/18 08:49:50;;;;;;;6.63;1.70;;;;;;;;;;5055690;28;20430;-82
2022/09/18 08:52:18;;;;;;;10.57;2.55;;;;;;;;;;5038640;28;20434;-82
2022/09/18 08:54:49;;;;;;;5.45;1.90;;;;;;;;;;5040459;28;20919;-83
2022/09/18 08:57:17;;;;;;;3.78;2.08;;;;;;;;;;5038366;28;20421;-82
2022/09/18 08:59:46;;;;;;;5.90;1.97;;;;;;;;;;5045282;28;20437;-82
2022/09/18 09:02:15;;;;;;;6.85;2.00;;;;;;;;;;5040533;28;20430;-82
2022/09/18 09:04:42;;;;;;;6.40;1.93;;;;;;;;;;5042475;28;20783;-82
2022/09/18 09:07:15;;;;;;;4.90;1.50;;;;;;;;;;5041778;28;20437;-82
2022/09/18 09:09:46;;;;;;;4.72;2.00;;;;;;;;;;5039070;28;20437;-82
2022/09/18 09:12:22;;;;;;;3.80;1.52;;;;;;;;;;5040711;28;21007;-82
2022/09/18 09:15:14;;;;;;;7.22;1.90;;;;;;;;;;5038973;28;20421;-82
2022/09/18 09:17:41;;;;;;;4.75;2.00;;;;;;;;;;5040367;28;20411;-82
2022/09/18 09:20:19;;;;;;;8.57;2.40;;;;;;;;;;5039731;28;20433;-83
2022/09/18 09:22:50;;;;;;;5.88;1.70;;;;;;;;;;5044958;28;20421;-83
2022/09/18 09:25:19;;;;;;;7.13;1.83;;;;;;;;;;5045390;28;20914;-82
2022/09/18 09:27:49;;;;;;;5.03;1.83;;;;;;;;;;5044363;28;20914;-82
2022/09/18 09:30:16;;;;;;;6.35;1.63;;;;;;;;;;5042453;28;20442;-81
2022/09/18 09:32:45;;;;;;;6.20;1.90;;;;;;;;;;5042531;28;20437;-82
2022/09/18 09:35:20;;;;;;;9.50;2.45;;;;;;;;;;5037024;28;20421;-81
2022/09/18 09:37:48;;;;;;;8.05;2.40;;;;;;;;;;5042165;28;20437;-81
2022/09/18 09:40:17;;;;;;;7.97;2.07;;;;;;;;;;5041815;28;20982;-79
2022/09/18 09:42:46;;;;;;;9.23;2.00;;;;;;;;;;5045282;28;20412;-80
2022/09/18 09:45:16;;;;;;;5.95;1.83;;;;;;;;;;5043525;28;20440;-81
2022/09/18 09:47:45;;;;;;;9.47;2.10;;;;;;;;;;5043127;28;20429;-81
2022/09/18 09:50:18;;;;;;;9.40;3.30;;;;;;;;;;5044330;28;20431;-79
2022/09/18 09:52:46;;;;;;;10.95;2.80;;;;;;;;;;5044026;28;20952;-81
2022/09/18 09:55:30;;;;;;;4.43;1.13;;;;;;;;;;5044813;28;20433;-80
2022/09/18 09:58:01;;;;;;;4.20;1.40;;;;;;;;;;5042537;28;20781;-81
2022/09/18 10:00:33;;;;;;;5.35;1.88;;;;;;;;;;5043294;28;21360;-81
2022/09/18 10:03:07;;;;;;;7.67;1.90;;;;;;;;;;5044494;28;20422;-80
2022/09/18 10:05:38;;;;;;;4.38;1.50;;;;;;;;;;5043844;28;20427;-81
2022/09/18 10:08:09;;;;;;;5.45;1.50;;;;;;;;;;5043327;28;20417;-80
2022/09/18 10:10:39;;;;;;;3.78;1.85;;;;;;;;;;5042533;28;20441;-80
2022/09/18 10:13:09;;;;;;;8.02;1.60;;;;;;;;;;5045789;28;20415;-82
2022/09/18 10:15:38;;;;;;;6.60;1.50;;;;;;;;;;5042516;28;20429;-82
2022/09/18 10:18:06;;;;;;;5.15;1.45;;;;;;;;;;5040988;28;20436;-80
2022/09/18 10:20:33;;;;;;;9.48;1.90;;;;;;;;;;5042877;28;20435;-80
2022/09/18 10:23:01;;;;;;;4.50;1.10;;;;;;;;;;5042421;28;20414;-80
2022/09/18 10:25:30;;;;;;;5.25;1.70;;;;;;;;;;5043068;28;20436;-80
2022/09/18 10:27:56;;;;;;;6.35;1.70;;;;;;;;;;5042400;28;20425;-80
2022/09/18 10:30:23;;;;;;;7.65;1.60;;;;;;;;;;5042526;28;20439;-80
2022/09/18 10:32:51;;;;;;;8.13;2.08;;;;;;;;;;5042492;28;20413;-80
2022/09/18 10:35:26;;;;;;;3.65;1.50;;;;;;;;;;5038953;28;21316;-80
2022/09/18 10:37:52;;;;;;;6.37;1.70;;;;;;;;;;5039761;28;20928;-82
2022/09/18 10:40:28;;;;;;;6.30;1.75;;;;;;;;;;5040133;28;20437;-82
2022/09/18 10:42:56;;;;;;;7.88;2.00;;;;;;;;;;5041287;28;20418;-82
2022/09/18 10:45:23;;;;;;;7.22;1.98;;;;;;;;;;5040847;28;20442;-82
2022/09/18 10:48:02;;;;;;;10.40;2.50;;;;;;;;;;5042170;28;20424;-82
2022/09/18 10:50:28;;;;;;;5.50;2.10;;;;;;;;;;5040272;28;20437;-80
2022/09/18 10:52:56;;;;;;;6.80;2.10;;;;;;;;;;5038683;28;21045;-83
2022/09/18 10:55:24;;;;;;;6.40;1.98;;;;;;;;;;5041688;28;20918;-82
2022/09/18 10:58:02;;;;;;;8.43;2.22;;;;;;;;;;5044965;28;20966;-80
2022/09/18 11:00:39;;;;;;;10.95;2.20;;;;;;;;;;5041185;28;20440;-80
2022/09/18 11:03:22;;;;;;;5.22;1.60;;;;;;;;;;5039786;28;20419;-82
2022/09/18 11:05:50;;;;;;;9.45;1.90;;;;;;;;;;5040753;28;20454;-82
2022/09/18 11:08:17;;;;;;;7.35;2.03;;;;;;;;;;5042233;28;20421;-82
2022/09/18 11:10:47;;;;;;;4.97;1.40;;;;;;;;;;5042885;28;20413;-83
2022/09/18 11:13:19;;;;;;;7.88;1.80;;;;;;;;;;5040540;28;20476;-81
2022/09/18 11:15:51;;;;;;;6.32;1.73;;;;;;;;;;5043229;28;20427;-80
2022/09/18 11:18:18;;;;;;;8.63;2.00;;;;;;;;;;5042283;28;20854;-82
2022/09/18 11:20:47;;;;;;;8.13;2.00;;;;;;;;;;5043146;28;20474;-83
2022/09/18 11:23:28;;;;;;;4.55;2.05;;;;;;;;;;5042856;28;20454;-82
2022/09/18 11:26:12;;;;;;;8.35;2.03;;;;;;;;;;5040597;28;20431;-82
2022/09/18 11:28:39;;;;;;;5.57;1.80;;;;;;;;;;5041492;28;20429;-82
2022/09/18 11:31:09;;;;;;;9.57;1.92;;;;;;;;;;5044741;28;20918;-80
2022/09/18 11:33:37;;;;;;;6.28;1.95;;;;;;;;;;5041984;28;20774;-82
2022/09/18 11:36:06;;;;;;;5.82;1.85;;;;;;;;;;5042932;28;20417;-83
2022/09/18 11:38:38;;;;;;;7.50;2.58;;;;;;;;;;5039988;28;20939;-81
2022/09/18 11:41:04;;;;;;;6.32;1.63;;;;;;;;;;5041712;28;21061;-80
2022/09/18 11:43:34;;;;;;;5.75;1.73;;;;;;;;;;5041979;28;20870;-81
2022/09/18 11:46:04;;;;;;;7.63;2.10;;;;;;;;;;5040844;28;20425;-80
2022/09/18 11:48:34;;;;;;;7.43;1.80;;;;;;;;;;5040810;28;20429;-79
2022/09/18 11:51:02;;;;;;;12.63;3.40;;;;;;;;;;5042324;28;20442;-80
2022/09/18 11:53:32;;;;;;;11.50;2.90;;;;;;;;;;5041306;28;20423;-80
2022/09/18 11:56:01;;;;;;;7.93;1.85;;;;;;;;;;5040380;28;20810;-79
2022/09/18 11:58:30;;;;;;;7.47;1.55;;;;;;;;;;5039723;28;20425;-82
2022/09/18 12:01:01;;;;;;;9.10;1.80;;;;;;;;;;5039427;28;20457;-82
2022/09/18 12:03:30;;;;;;;6.85;1.60;;;;;;;;;;5040167;28;20429;-80
2022/09/18 12:05:58;;;;;;;4.80;1.23;;;;;;;;;;5040743;28;20434;-80
2022/09/18 12:08:35;;;;;;;4.28;1.40;;;;;;;;;;5040117;28;20421;-82
2022/09/18 12:11:08;;;;;;;5.95;1.60;;;;;;;;;;5040589;28;20472;-82
2022/09/18 12:13:45;;;;;;;5.30;1.65;;;;;;;;;;5040046;28;20438;-82
2022/09/18 12:16:13;;;;;;;5.95;1.70;;;;;;;;;;5040336;28;20441;-80
2022/09/18 12:18:46;;;;;;;5.90;2.00;;;;;;;;;;5037510;28;20459;-80
2022/09/18 12:21:15;;;;;;;6.70;1.60;;;;;;;;;;5039252;28;20441;-80
2022/09/18 12:23:43;;;;;;;3.92;1.30;;;;;;;;;;5042012;28;21108;-80
2022/09/18 12:26:12;;;;;;;6.65;1.33;;;;;;;;;;5037533;28;20431;-81
2022/09/18 12:28:42;;;;;;;5.70;1.25;;;;;;;;;;5041273;28;20431;-81
2022/09/18 12:31:12;;;;;;;6.00;1.50;;;;;;;;;;5040042;28;20517;-82
2022/09/18 12:33:42;;;;;;;6.05;1.67;;;;;;;;;;5041575;28;20425;-82
2022/09/18 12:36:16;;;;;;;4.97;1.30;;;;;;;;;;5039922;28;20440;-82
2022/09/18 12:38:48;;;;;;;3.88;1.20;;;;;;;;;;5041230;28;20425;-81
2022/09/18 12:41:20;;;;;;;7.50;1.10;;;;;;;;;;5040739;28;20910;-81
2022/09/18 12:43:59;;;;;;;7.20;1.50;;;;;;;;;;5041700;28;20453;-81
2022/09/18 12:46:36;;;;;;;7.57;1.60;;;;;;;;;;5041140;28;20477;-82
2022/09/18 12:49:09;;;;;;;7.00;1.98;;;;;;;;;;5040384;28;20429;-80
2022/09/18 12:51:39;;;;;;;5.13;1.30;;;;;;;;;;5040096;28;20951;-79
2022/09/18 12:54:21;;;;;;;5.83;1.50;;;;;;;;;;5040028;28;20431;-82
2022/09/18 12:56:57;;;;;;;3.55;1.77;;;;;;;;;;5039827;28;20427;-80
2022/09/18 12:59:44;;;;;;;6.77;1.50;;;;;;;;;;5043347;28;20437;-82
2022/09/18 13:02:15;;;;;;;5.72;1.35;;;;;;;;;;5037425;28;20437;-81
2022/09/18 13:04:45;;;;;;;4.00;1.63;;;;;;;;;;5044098;28;20445;-82
2022/09/18 13:07:14;;;;;;;6.57;1.60;;;;;;;;;;5044874;28;20810;-82
2022/09/18 13:09:43;;;;;;;7.97;1.67;;;;;;;;;;5044388;28;20428;-81
2022/09/18 13:12:15;;;;;;;7.00;1.67;;;;;;;;;;5043352;28;20429;-82
2022/09/18 13:14:44;;;;;;;9.52;2.17;;;;;;;;;;5063812;28;20429;-82
2022/09/18 13:17:13;;;;;;;10.17;2.20;;;;;;;;;;5062046;28;20931;-79
2022/09/18 13:19:42;;;;;;;7.87;1.90;;;;;;;;;;5065097;28;20409;-82
2022/09/18 13:22:13;;;;;;;6.15;1.52;;;;;;;;;;5064085;28;20405;-82
2022/09/18 13:24:40;;;;;;;11.75;1.90;;;;;;;;;;5063465;28;20416;-81
2022/09/18 13:27:09;;;;;;;8.52;1.92;;;;;;;;;;5067184;28;20419;-81
2022/09/18 13:30:02;;;;;;;7.50;2.37;;;;;;;;;;5065127;28;20425;-79
2022/09/18 13:32:40;;;;;;;7.47;1.70;;;;;;;;;;5026968;28;20943;-80
2022/09/18 13:35:08;;;;;;;6.75;2.00;;;;;;;;;;5066579;28;20419;-80
2022/09/18 13:37:34;;;;;;;8.30;2.17;;;;;;;;;;5062522;28;20419;-80
2022/09/18 13:40:02;;;;;;;7.00;2.10;;;;;;;;;;5064496;28;20458;-81
2022/09/18 13:42:30;;;;;;;5.50;1.90;;;;;;;;;;5065173;28;20417;-80
2022/09/18 13:45:00;;;;;;;5.07;2.00;;;;;;;;;;5064852;28;20430;-80
2022/09/18 13:47:28;;;;;;;11.63;2.20;;;;;;;;;;5062929;28;20446;-80
2022/09/18 13:49:57;;;;;;;7.95;2.35;;;;;;;;;;5065039;28;20491;-80
2022/09/18 13:52:27;;;;;;;6.22;1.90;;;;;;;;;;5063330;28;20805;-80
2022/09/18 13:55:00;;;;;;;9.63;1.60;;;;;;;;;;5065410;28;20432;-80
2022/09/18 13:57:31;;;;;;;7.20;1.20;;;;;;;;;;5063036;28;20433;-80
2022/09/18 14:00:00;;;;;;;3.88;1.50;;;;;;;;;;5063970;28;20899;-80
2022/09/18 14:02:33;;;;;;;6.00;1.90;;;;;;;;;;5062772;28;20446;-80
2022/09/18 14:05:28;;;;;;;7.10;2.20;;;;;;;;;;5064595;28;20493;-79
2022/09/18 14:08:06;;;;;;;9.60;2.50;;;;;;;;;;5061721;28;20519;-80
2022/09/18 14:10:38;;;;;;;10.18;2.40;;;;;;;;;;5060505;28;20760;-81
2022/09/18 14:13:29;;;;;;;9.53;2.60;;;;;;;;;;5063766;28;20426;-81
2022/09/18 14:15:58;;;;;;;8.70;2.28;;;;;;;;;;5065522;28;20427;-81
2022/09/18 14:18:27;;;;;;;14.55;2.80;;;;;;;;;;5052527;28;20435;-81
2022/09/18 14:20:55;;;;;;;6.78;2.20;;;;;;;;;;5043148;28;20474;-81
2022/09/18 14:23:40;;;;;;;8.90;2.80;;;;;;;;;;5042655;28;21020;-81
2022/09/18 14:26:21;;;;;;;11.17;2.20;;;;;;;;;;5043219;28;20938;-80
2022/09/18 14:28:48;;;;;;;10.13;2.17;;;;;;;;;;5040796;28;20442;-80
2022/09/18 14:31:18;;;;;;;7.15;2.00;;;;;;;;;;5040856;28;20440;-80
2022/09/18 14:33:45;;;;;;;10.43;2.50;;;;;;;;;;5040572;28;20440;-80
2022/09/18 14:36:11;;;;;;;11.15;2.42;;;;;;;;;;5040194;28;20433;-82
2022/09/18 14:38:39;;;;;;;8.20;2.30;;;;;;;;;;5041337;28;20437;-80
2022/09/18 14:41:17;;;;;;;9.30;2.03;;;;;;;;;;5043367;28;20434;-79
2022/09/18 14:43:49;;;;;;;9.20;2.20;;;;;;;;;;5041247;28;20415;-82
2022/09/18 14:46:17;;;;;;;11.82;2.60;;;;;;;;;;5042985;28;20429;-85
2022/09/18 14:48:44;;;;;;;10.35;2.80;;;;;;;;;;5040910;28;20421;-82
2022/09/18 14:51:16;;;;;;;9.88;2.60;;;;;;;;;;5040946;28;20431;-82
2022/09/18 14:53:43;;;;;;;9.90;2.20;;;;;;;;;;5040352;28;20420;-83